sensor_id;sensor_type;location;lat;lon;timestamp;temperature;humidity
45715;DHT22;31430;61.646;24.704;2022-10-16T00:01:26;10.20;99.90
45715;DHT22;31430;61.646;24.704;2022-10-16T00:03:52;10.10;99.90
45715;DHT22;31430;61.646;24.704;2022-10-16T00:06:20;10.20;99.90
45715;DHT22;31430;61.646;24.704;2022-10-16T00:08:46;10.20;99.90
45715;DHT22;31430;61.646;24.704;2022-10-16T00:11:18;10.20;99.90
45715;DHT22;31430;61.646;24.704;2022-10-16T00:13:45;10.30;99.90
45715;DHT22;31430;61.646;24.704;2022-10-16T00:16:12;10.30;99.90
45715;DHT22;31430;61.646;24.704;2022-10-16T00:18:38;10.30;99.90
45715;DHT22;31430;61.646;24.704;2022-10-16T00:21:04;10.30;99.90
45715;DHT22;31430;61.646;24.704;2022-10-16T00:23:31;10.20;99.90
45715;DHT22;31430;61.646;24.704;2022-10-16T00:25:59;10.20;99.90
45715;DHT22;31430;61.646;24.704;2022-10-16T00:28:25;10.20;99.90
45715;DHT22;31430;61.646;24.704;2022-10-16T00:30:51;10.30;99.90
45715;DHT22;31430;61.646;24.704;2022-10-16T00:33:17;10.30;99.90
45715;DHT22;31430;61.646;24.704;2022-10-16T00:35:42;10.40;99.90
45715;DHT22;31430;61.646;24.704;2022-10-16T00:38:09;10.30;99.90
45715;DHT22;31430;61.646;24.704;2022-10-16T00:40:34;10.30;99.90
45715;DHT22;31430;61.646;24.704;2022-10-16T00:43:00;10.30;99.90
45715;DHT22;31430;61.646;24.704;2022-10-16T00:45:26;10.30;99.90
45715;DHT22;31430;61.646;24.704;2022-10-16T00:47:53;10.30;99.90
45715;DHT22;31430;61.646;24.704;2022-10-16T00:50:29;10.30;99.90
45715;DHT22;31430;61.646;24.704;2022-10-16T00:52:56;10.30;99.90
45715;DHT22;31430;61.646;24.704;2022-10-16T00:55:22;10.30;99.90
45715;DHT22;31430;61.646;24.704;2022-10-16T00:57:49;10.40;99.90
45715;DHT22;31430;61.646;24.704;2022-10-16T01:00:19;10.30;99.90
45715;DHT22;31430;61.646;24.704;2022-10-16T01:02:53;10.30;99.90
45715;DHT22;31430;61.646;24.704;2022-10-16T01:05:21;10.40;99.90
45715;DHT22;31430;61.646;24.704;2022-10-16T01:07:56;10.40;99.90
45715;DHT22;31430;61.646;24.704;2022-10-16T01:13:16;10.30;99.90
45715;DHT22;31430;61.646;24.704;2022-10-16T01:16:00;10.30;99.90
45715;DHT22;31430;61.646;24.704;2022-10-16T01:18:44;10.40;99.90
45715;DHT22;31430;61.646;24.704;2022-10-16T01:21:26;10.30;99.90
45715;DHT22;31430;61.646;24.704;2022-10-16T01:27:12;10.30;99.90
45715;DHT22;31430;61.646;24.704;2022-10-16T01:30:18;10.30;99.90
45715;DHT22;31430;61.646;24.704;2022-10-16T01:32:50;10.40;99.90
45715;DHT22;31430;61.646;24.704;2022-10-16T01:35:25;10.30;99.90
45715;DHT22;31430;61.646;24.704;2022-10-16T01:38:00;10.30;99.90
45715;DHT22;31430;61.646;24.704;2022-10-16T01:40:29;10.30;99.90
45715;DHT22;31430;61.646;24.704;2022-10-16T01:43:00;10.30;99.90
45715;DHT22;31430;61.646;24.704;2022-10-16T01:45:28;10.30;99.90
45715;DHT22;31430;61.646;24.704;2022-10-16T01:47:55;10.30;99.90
45715;DHT22;31430;61.646;24.704;2022-10-16T01:50:21;10.30;99.90
45715;DHT22;31430;61.646;24.704;2022-10-16T01:52:50;10.30;99.90
45715;DHT22;31430;61.646;24.704;2022-10-16T01:55:22;10.30;99.90
45715;DHT22;31430;61.646;24.704;2022-10-16T01:57:50;10.30;99.90
45715;DHT22;31430;61.646;24.704;2022-10-16T02:00:19;10.30;99.90
45715;DHT22;31430;61.646;24.704;2022-10-16T02:02:48;10.30;99.90
45715;DHT22;31430;61.646;24.704;2022-10-16T02:05:21;10.20;99.90
45715;DHT22;31430;61.646;24.704;2022-10-16T02:07:49;10.20;99.90
45715;DHT22;31430;61.646;24.704;2022-10-16T02:10:15;10.20;99.90
45715;DHT22;31430;61.646;24.704;2022-10-16T02:13:26;10.20;99.90
45715;DHT22;31430;61.646;24.704;2022-10-16T02:15:32;10.20;99.90
45715;DHT22;31430;61.646;24.704;2022-10-16T02:17:57;10.20;99.90
45715;DHT22;31430;61.646;24.704;2022-10-16T02:20:27;10.30;99.90
45715;DHT22;31430;61.646;24.704;2022-10-16T02:22:54;10.30;99.90
45715;DHT22;31430;61.646;24.704;2022-10-16T02:25:35;10.20;99.90
45715;DHT22;31430;61.646;24.704;2022-10-16T02:28:25;10.30;99.90
45715;DHT22;31430;61.646;24.704;2022-10-16T02:33:23;10.30;99.90
45715;DHT22;31430;61.646;24.704;2022-10-16T02:35:51;10.30;99.90
45715;DHT22;31430;61.646;24.704;2022-10-16T02:38:17;10.30;99.90
45715;DHT22;31430;61.646;24.704;2022-10-16T02:40:45;10.20;99.90
45715;DHT22;31430;61.646;24.704;2022-10-16T02:43:11;10.20;99.90
45715;DHT22;31430;61.646;24.704;2022-10-16T02:45:37;10.30;99.90
45715;DHT22;31430;61.646;24.704;2022-10-16T02:48:03;10.30;99.90
45715;DHT22;31430;61.646;24.704;2022-10-16T02:50:29;10.30;99.90
45715;DHT22;31430;61.646;24.704;2022-10-16T02:52:54;10.20;99.90
45715;DHT22;31430;61.646;24.704;2022-10-16T02:55:20;10.30;99.90
45715;DHT22;31430;61.646;24.704;2022-10-16T02:57:46;10.30;99.90
45715;DHT22;31430;61.646;24.704;2022-10-16T03:00:14;10.40;99.90
45715;DHT22;31430;61.646;24.704;2022-10-16T03:02:40;10.40;99.90
45715;DHT22;31430;61.646;24.704;2022-10-16T03:05:07;10.40;99.90
45715;DHT22;31430;61.646;24.704;2022-10-16T03:07:33;10.30;99.90
45715;DHT22;31430;61.646;24.704;2022-10-16T03:09:58;10.40;99.90
45715;DHT22;31430;61.646;24.704;2022-10-16T03:12:26;10.40;99.90
45715;DHT22;31430;61.646;24.704;2022-10-16T03:14:52;10.30;99.90
45715;DHT22;31430;61.646;24.704;2022-10-16T03:17:17;10.30;99.90
45715;DHT22;31430;61.646;24.704;2022-10-16T03:19:43;10.30;99.90
45715;DHT22;31430;61.646;24.704;2022-10-16T03:22:09;10.40;99.90
45715;DHT22;31430;61.646;24.704;2022-10-16T03:24:34;10.40;99.90
45715;DHT22;31430;61.646;24.704;2022-10-16T03:27:00;10.30;99.90
45715;DHT22;31430;61.646;24.704;2022-10-16T03:29:26;10.30;99.90
45715;DHT22;31430;61.646;24.704;2022-10-16T03:31:53;10.30;99.90
45715;DHT22;31430;61.646;24.704;2022-10-16T03:34:18;10.30;99.90
45715;DHT22;31430;61.646;24.704;2022-10-16T03:36:44;10.30;99.90
45715;DHT22;31430;61.646;24.704;2022-10-16T03:39:10;10.30;99.90
45715;DHT22;31430;61.646;24.704;2022-10-16T03:41:35;10.30;99.90
45715;DHT22;31430;61.646;24.704;2022-10-16T03:44:01;10.20;99.90
45715;DHT22;31430;61.646;24.704;2022-10-16T03:46:26;10.30;99.90
45715;DHT22;31430;61.646;24.704;2022-10-16T03:48:52;10.30;99.90
45715;DHT22;31430;61.646;24.704;2022-10-16T03:51:18;10.30;99.90
45715;DHT22;31430;61.646;24.704;2022-10-16T03:53:43;10.30;99.90
45715;DHT22;31430;61.646;24.704;2022-10-16T03:56:09;10.30;99.90
45715;DHT22;31430;61.646;24.704;2022-10-16T03:58:35;10.30;99.90
45715;DHT22;31430;61.646;24.704;2022-10-16T04:01:00;10.30;99.90
45715;DHT22;31430;61.646;24.704;2022-10-16T04:03:26;10.30;99.90
45715;DHT22;31430;61.646;24.704;2022-10-16T04:05:52;10.20;99.90
45715;DHT22;31430;61.646;24.704;2022-10-16T04:08:18;10.30;99.90
45715;DHT22;31430;61.646;24.704;2022-10-16T04:10:43;10.30;99.90
45715;DHT22;31430;61.646;24.704;2022-10-16T04:13:10;10.30;99.90
45715;DHT22;31430;61.646;24.704;2022-10-16T04:15:35;10.30;99.90
45715;DHT22;31430;61.646;24.704;2022-10-16T04:18:01;10.30;99.90
45715;DHT22;31430;61.646;24.704;2022-10-16T04:20:27;10.40;99.90
45715;DHT22;31430;61.646;24.704;2022-10-16T04:22:52;10.30;99.90
45715;DHT22;31430;61.646;24.704;2022-10-16T04:25:18;10.30;99.90
45715;DHT22;31430;61.646;24.704;2022-10-16T04:27:44;10.30;99.90
45715;DHT22;31430;61.646;24.704;2022-10-16T04:30:10;10.30;99.90
45715;DHT22;31430;61.646;24.704;2022-10-16T04:32:35;10.30;99.90
45715;DHT22;31430;61.646;24.704;2022-10-16T04:35:01;10.30;99.90
45715;DHT22;31430;61.646;24.704;2022-10-16T04:37:28;10.30;99.90
45715;DHT22;31430;61.646;24.704;2022-10-16T04:39:54;10.30;99.90
45715;DHT22;31430;61.646;24.704;2022-10-16T04:42:20;10.30;99.90
45715;DHT22;31430;61.646;24.704;2022-10-16T04:44:45;10.30;99.90
45715;DHT22;31430;61.646;24.704;2022-10-16T04:47:12;10.30;99.90
45715;DHT22;31430;61.646;24.704;2022-10-16T04:49:38;10.30;99.90
45715;DHT22;31430;61.646;24.704;2022-10-16T04:52:04;10.30;99.90
45715;DHT22;31430;61.646;24.704;2022-10-16T04:54:30;10.30;99.90
45715;DHT22;31430;61.646;24.704;2022-10-16T04:56:55;10.30;99.90
45715;DHT22;31430;61.646;24.704;2022-10-16T04:59:21;10.30;99.90
45715;DHT22;31430;61.646;24.704;2022-10-16T05:01:47;10.20;99.90
45715;DHT22;31430;61.646;24.704;2022-10-16T05:04:13;10.30;99.90
45715;DHT22;31430;61.646;24.704;2022-10-16T05:06:40;10.30;99.90
45715;DHT22;31430;61.646;24.704;2022-10-16T05:09:06;10.20;99.90
45715;DHT22;31430;61.646;24.704;2022-10-16T05:11:32;10.20;99.90
45715;DHT22;31430;61.646;24.704;2022-10-16T05:13:58;10.20;99.90
45715;DHT22;31430;61.646;24.704;2022-10-16T05:16:23;10.30;99.90
45715;DHT22;31430;61.646;24.704;2022-10-16T05:18:49;10.30;99.90
45715;DHT22;31430;61.646;24.704;2022-10-16T05:21:16;10.30;99.90
45715;DHT22;31430;61.646;24.704;2022-10-16T05:23:41;10.20;99.90
45715;DHT22;31430;61.646;24.704;2022-10-16T05:26:07;10.20;99.90
45715;DHT22;31430;61.646;24.704;2022-10-16T05:28:33;10.30;99.90
45715;DHT22;31430;61.646;24.704;2022-10-16T05:30:59;10.20;99.90
45715;DHT22;31430;61.646;24.704;2022-10-16T05:33:29;10.20;99.90
45715;DHT22;31430;61.646;24.704;2022-10-16T05:35:54;10.30;99.90
45715;DHT22;31430;61.646;24.704;2022-10-16T05:38:20;10.30;99.90
45715;DHT22;31430;61.646;24.704;2022-10-16T05:40:52;10.20;99.90
45715;DHT22;31430;61.646;24.704;2022-10-16T05:43:18;10.30;99.90
45715;DHT22;31430;61.646;24.704;2022-10-16T05:45:44;10.30;99.90
45715;DHT22;31430;61.646;24.704;2022-10-16T05:48:09;10.20;99.90
45715;DHT22;31430;61.646;24.704;2022-10-16T05:50:35;10.30;99.90
45715;DHT22;31430;61.646;24.704;2022-10-16T05:53:00;10.20;99.90
45715;DHT22;31430;61.646;24.704;2022-10-16T05:55:26;10.30;99.90
45715;DHT22;31430;61.646;24.704;2022-10-16T05:57:54;10.30;99.90
45715;DHT22;31430;61.646;24.704;2022-10-16T06:00:20;10.30;99.90
45715;DHT22;31430;61.646;24.704;2022-10-16T06:02:45;10.30;99.90
45715;DHT22;31430;61.646;24.704;2022-10-16T06:05:11;10.30;99.90
45715;DHT22;31430;61.646;24.704;2022-10-16T06:07:37;10.30;99.90
45715;DHT22;31430;61.646;24.704;2022-10-16T06:10:03;10.30;99.90
45715;DHT22;31430;61.646;24.704;2022-10-16T06:12:29;10.30;99.90
45715;DHT22;31430;61.646;24.704;2022-10-16T06:14:55;10.30;99.90
45715;DHT22;31430;61.646;24.704;2022-10-16T06:17:21;10.30;99.90
45715;DHT22;31430;61.646;24.704;2022-10-16T06:19:46;10.30;99.90
45715;DHT22;31430;61.646;24.704;2022-10-16T06:22:12;10.30;99.90
45715;DHT22;31430;61.646;24.704;2022-10-16T06:24:38;10.40;99.90
45715;DHT22;31430;61.646;24.704;2022-10-16T06:27:04;10.30;99.90
45715;DHT22;31430;61.646;24.704;2022-10-16T06:29:30;10.40;99.90
45715;DHT22;31430;61.646;24.704;2022-10-16T06:31:55;10.40;99.90
45715;DHT22;31430;61.646;24.704;2022-10-16T06:34:21;10.40;99.90
45715;DHT22;31430;61.646;24.704;2022-10-16T06:36:47;10.40;99.90
45715;DHT22;31430;61.646;24.704;2022-10-16T06:39:13;10.40;99.90
45715;DHT22;31430;61.646;24.704;2022-10-16T06:41:38;10.40;99.90
45715;DHT22;31430;61.646;24.704;2022-10-16T06:44:07;10.40;99.90
45715;DHT22;31430;61.646;24.704;2022-10-16T06:46:33;10.50;99.90
45715;DHT22;31430;61.646;24.704;2022-10-16T06:48:59;10.50;99.90
45715;DHT22;31430;61.646;24.704;2022-10-16T06:51:25;10.50;99.90
45715;DHT22;31430;61.646;24.704;2022-10-16T06:53:53;10.50;99.90
45715;DHT22;31430;61.646;24.704;2022-10-16T06:56:25;10.50;99.90
45715;DHT22;31430;61.646;24.704;2022-10-16T06:58:51;10.50;99.90
45715;DHT22;31430;61.646;24.704;2022-10-16T07:01:19;10.50;99.90
45715;DHT22;31430;61.646;24.704;2022-10-16T07:03:45;10.60;99.90
45715;DHT22;31430;61.646;24.704;2022-10-16T07:06:14;10.60;99.90
45715;DHT22;31430;61.646;24.704;2022-10-16T07:08:44;10.60;99.90
45715;DHT22;31430;61.646;24.704;2022-10-16T07:11:13;10.60;99.90
45715;DHT22;31430;61.646;24.704;2022-10-16T07:13:41;10.50;99.90
45715;DHT22;31430;61.646;24.704;2022-10-16T07:16:09;10.40;99.90
45715;DHT22;31430;61.646;24.704;2022-10-16T07:18:35;10.40;99.90
45715;DHT22;31430;61.646;24.704;2022-10-16T07:21:10;10.30;99.90
45715;DHT22;31430;61.646;24.704;2022-10-16T07:23:36;10.40;99.90
45715;DHT22;31430;61.646;24.704;2022-10-16T07:26:03;10.40;99.90
45715;DHT22;31430;61.646;24.704;2022-10-16T07:28:28;10.40;99.90
45715;DHT22;31430;61.646;24.704;2022-10-16T07:30:54;10.30;99.90
45715;DHT22;31430;61.646;24.704;2022-10-16T07:33:21;10.30;99.90
45715;DHT22;31430;61.646;24.704;2022-10-16T07:35:55;10.40;99.90
45715;DHT22;31430;61.646;24.704;2022-10-16T07:38:22;10.40;99.90
45715;DHT22;31430;61.646;24.704;2022-10-16T07:40:47;10.30;99.90
45715;DHT22;31430;61.646;24.704;2022-10-16T07:43:14;10.30;99.90
45715;DHT22;31430;61.646;24.704;2022-10-16T07:45:48;10.30;99.90
45715;DHT22;31430;61.646;24.704;2022-10-16T07:48:15;10.30;99.90
45715;DHT22;31430;61.646;24.704;2022-10-16T07:50:41;10.30;99.90
45715;DHT22;31430;61.646;24.704;2022-10-16T07:53:07;10.40;99.90
45715;DHT22;31430;61.646;24.704;2022-10-16T07:55:33;10.40;99.90
45715;DHT22;31430;61.646;24.704;2022-10-16T07:57:58;10.40;99.90
45715;DHT22;31430;61.646;24.704;2022-10-16T08:00:24;10.50;99.90
45715;DHT22;31430;61.646;24.704;2022-10-16T08:02:50;10.50;99.90
45715;DHT22;31430;61.646;24.704;2022-10-16T08:05:15;10.50;99.90
45715;DHT22;31430;61.646;24.704;2022-10-16T08:07:41;10.60;99.90
45715;DHT22;31430;61.646;24.704;2022-10-16T08:10:10;10.60;99.90
45715;DHT22;31430;61.646;24.704;2022-10-16T08:12:41;10.60;99.90
45715;DHT22;31430;61.646;24.704;2022-10-16T08:15:07;10.60;99.90
45715;DHT22;31430;61.646;24.704;2022-10-16T08:17:32;10.50;99.90
45715;DHT22;31430;61.646;24.704;2022-10-16T08:19:58;10.50;99.90
45715;DHT22;31430;61.646;24.704;2022-10-16T08:22:24;10.50;99.90
45715;DHT22;31430;61.646;24.704;2022-10-16T08:24:49;10.50;99.90
45715;DHT22;31430;61.646;24.704;2022-10-16T08:27:15;10.60;99.90
45715;DHT22;31430;61.646;24.704;2022-10-16T08:29:40;10.60;99.90
45715;DHT22;31430;61.646;24.704;2022-10-16T08:32:06;10.70;99.90
45715;DHT22;31430;61.646;24.704;2022-10-16T08:34:32;10.70;99.90
45715;DHT22;31430;61.646;24.704;2022-10-16T08:36:57;10.80;99.90
45715;DHT22;31430;61.646;24.704;2022-10-16T08:39:23;10.80;99.90
45715;DHT22;31430;61.646;24.704;2022-10-16T08:45:03;10.90;99.90
45715;DHT22;31430;61.646;24.704;2022-10-16T08:50:10;10.90;99.90
45715;DHT22;31430;61.646;24.704;2022-10-16T08:52:40;11.00;99.90
45715;DHT22;31430;61.646;24.704;2022-10-16T08:55:09;11.10;99.90
45715;DHT22;31430;61.646;24.704;2022-10-16T08:57:42;11.00;99.90
45715;DHT22;31430;61.646;24.704;2022-10-16T09:00:13;11.10;99.90
45715;DHT22;31430;61.646;24.704;2022-10-16T09:05:22;11.00;99.90
45715;DHT22;31430;61.646;24.704;2022-10-16T09:13:15;10.90;99.90
45715;DHT22;31430;61.646;24.704;2022-10-16T09:15:48;10.90;99.90
45715;DHT22;31430;61.646;24.704;2022-10-16T09:18:26;10.90;99.90
45715;DHT22;31430;61.646;24.704;2022-10-16T09:21:44;11.00;99.90
45715;DHT22;31430;61.646;24.704;2022-10-16T09:23:45;11.00;99.90
45715;DHT22;31430;61.646;24.704;2022-10-16T09:26:13;11.00;99.90
45715;DHT22;31430;61.646;24.704;2022-10-16T09:28:39;11.00;99.90
45715;DHT22;31430;61.646;24.704;2022-10-16T09:31:07;11.00;99.90
45715;DHT22;31430;61.646;24.704;2022-10-16T09:33:37;11.00;99.90
45715;DHT22;31430;61.646;24.704;2022-10-16T09:36:05;10.90;99.90
45715;DHT22;31430;61.646;24.704;2022-10-16T09:38:34;11.00;99.90
45715;DHT22;31430;61.646;24.704;2022-10-16T09:41:11;11.00;99.90
45715;DHT22;31430;61.646;24.704;2022-10-16T09:43:46;11.00;99.90
45715;DHT22;31430;61.646;24.704;2022-10-16T09:46:24;11.10;99.90
45715;DHT22;31430;61.646;24.704;2022-10-16T09:48:52;11.10;99.90
45715;DHT22;31430;61.646;24.704;2022-10-16T09:51:24;11.20;99.90
45715;DHT22;31430;61.646;24.704;2022-10-16T09:54:01;11.20;99.90
45715;DHT22;31430;61.646;24.704;2022-10-16T09:56:32;11.20;99.90
45715;DHT22;31430;61.646;24.704;2022-10-16T09:59:00;11.30;99.90
45715;DHT22;31430;61.646;24.704;2022-10-16T10:01:46;11.40;99.90
45715;DHT22;31430;61.646;24.704;2022-10-16T10:04:12;11.40;99.90
45715;DHT22;31430;61.646;24.704;2022-10-16T10:06:45;11.40;99.90
45715;DHT22;31430;61.646;24.704;2022-10-16T10:09:31;11.40;99.90
45715;DHT22;31430;61.646;24.704;2022-10-16T10:11:59;11.50;99.90
45715;DHT22;31430;61.646;24.704;2022-10-16T10:17:13;11.50;99.90
45715;DHT22;31430;61.646;24.704;2022-10-16T10:19:41;11.60;99.90
45715;DHT22;31430;61.646;24.704;2022-10-16T10:27:21;11.60;99.90
45715;DHT22;31430;61.646;24.704;2022-10-16T10:30:01;11.60;99.90
45715;DHT22;31430;61.646;24.704;2022-10-16T10:32:37;11.60;99.90
45715;DHT22;31430;61.646;24.704;2022-10-16T10:43:43;11.50;99.90
45715;DHT22;31430;61.646;24.704;2022-10-16T10:46:35;11.60;99.90
45715;DHT22;31430;61.646;24.704;2022-10-16T11:01:59;11.60;99.90
45715;DHT22;31430;61.646;24.704;2022-10-16T11:04:49;11.60;99.90
45715;DHT22;31430;61.646;24.704;2022-10-16T11:07:33;11.70;99.90
45715;DHT22;31430;61.646;24.704;2022-10-16T11:10:30;11.60;99.90
45715;DHT22;31430;61.646;24.704;2022-10-16T11:13:10;11.60;99.90
45715;DHT22;31430;61.646;24.704;2022-10-16T11:15:43;11.70;99.90
45715;DHT22;31430;61.646;24.704;2022-10-16T11:21:14;11.80;99.90
45715;DHT22;31430;61.646;24.704;2022-10-16T11:26:20;11.90;99.90
45715;DHT22;31430;61.646;24.704;2022-10-16T11:28:52;11.90;99.90
45715;DHT22;31430;61.646;24.704;2022-10-16T11:37:07;11.90;99.90
45715;DHT22;31430;61.646;24.704;2022-10-16T11:39:34;11.90;99.90
45715;DHT22;31430;61.646;24.704;2022-10-16T11:42:05;11.90;99.90
45715;DHT22;31430;61.646;24.704;2022-10-16T11:44:57;11.90;99.90
45715;DHT22;31430;61.646;24.704;2022-10-16T11:47:44;11.90;99.90
45715;DHT22;31430;61.646;24.704;2022-10-16T11:55:39;11.80;99.90
45715;DHT22;31430;61.646;24.704;2022-10-16T12:01:02;11.80;99.90
45715;DHT22;31430;61.646;24.704;2022-10-16T12:08:54;11.70;99.90
45715;DHT22;31430;61.646;24.704;2022-10-16T12:14:05;11.70;99.90
45715;DHT22;31430;61.646;24.704;2022-10-16T12:16:31;11.60;99.90
45715;DHT22;31430;61.646;24.704;2022-10-16T12:19:24;11.60;99.90
45715;DHT22;31430;61.646;24.704;2022-10-16T12:21:51;11.60;99.90
45715;DHT22;31430;61.646;24.704;2022-10-16T12:24:32;11.60;99.90
45715;DHT22;31430;61.646;24.704;2022-10-16T12:26:59;11.50;99.90
45715;DHT22;31430;61.646;24.704;2022-10-16T12:29:41;11.60;99.90
45715;DHT22;31430;61.646;24.704;2022-10-16T12:32:32;11.50;99.90
45715;DHT22;31430;61.646;24.704;2022-10-16T12:35:00;11.50;99.90
45715;DHT22;31430;61.646;24.704;2022-10-16T12:37:36;11.50;99.90
45715;DHT22;31430;61.646;24.704;2022-10-16T12:40:27;11.50;99.90
45715;DHT22;31430;61.646;24.704;2022-10-16T12:42:53;11.60;99.90
45715;DHT22;31430;61.646;24.704;2022-10-16T12:45:33;11.60;99.90
45715;DHT22;31430;61.646;24.704;2022-10-16T12:48:01;11.60;99.90
45715;DHT22;31430;61.646;24.704;2022-10-16T12:50:34;11.60;99.90
45715;DHT22;31430;61.646;24.704;2022-10-16T12:53:01;11.70;99.90
45715;DHT22;31430;61.646;24.704;2022-10-16T12:55:34;11.80;99.90
45715;DHT22;31430;61.646;24.704;2022-10-16T13:01:02;11.70;99.90
45715;DHT22;31430;61.646;24.704;2022-10-16T13:04:04;11.70;99.90
45715;DHT22;31430;61.646;24.704;2022-10-16T13:06:45;11.70;99.90
45715;DHT22;31430;61.646;24.704;2022-10-16T13:09:35;11.70;99.90
45715;DHT22;31430;61.646;24.704;2022-10-16T13:12:45;11.70;99.90
45715;DHT22;31430;61.646;24.704;2022-10-16T13:17:47;11.70;99.90
45715;DHT22;31430;61.646;24.704;2022-10-16T13:30:30;11.60;99.90
45715;DHT22;31430;61.646;24.704;2022-10-16T13:33:02;11.60;99.90
45715;DHT22;31430;61.646;24.704;2022-10-16T13:35:31;11.60;99.90
45715;DHT22;31430;61.646;24.704;2022-10-16T13:38:25;11.50;99.90
45715;DHT22;31430;61.646;24.704;2022-10-16T13:40:57;11.60;99.90
45715;DHT22;31430;61.646;24.704;2022-10-16T13:43:33;11.60;99.90
45715;DHT22;31430;61.646;24.704;2022-10-16T13:48:28;11.50;99.90
45715;DHT22;31430;61.646;24.704;2022-10-16T13:51:01;11.50;99.90
45715;DHT22;31430;61.646;24.704;2022-10-16T13:53:27;11.50;99.90
45715;DHT22;31430;61.646;24.704;2022-10-16T13:55:55;11.40;99.90
45715;DHT22;31430;61.646;24.704;2022-10-16T13:58:21;11.40;99.90
45715;DHT22;31430;61.646;24.704;2022-10-16T14:01:17;11.40;99.90
45715;DHT22;31430;61.646;24.704;2022-10-16T14:03:44;11.30;99.90
45715;DHT22;31430;61.646;24.704;2022-10-16T14:06:16;11.30;99.90
45715;DHT22;31430;61.646;24.704;2022-10-16T14:08:45;11.30;99.90
45715;DHT22;31430;61.646;24.704;2022-10-16T14:11:24;11.30;99.90
45715;DHT22;31430;61.646;24.704;2022-10-16T14:13:51;11.20;99.90
45715;DHT22;31430;61.646;24.704;2022-10-16T14:16:22;11.20;99.90
45715;DHT22;31430;61.646;24.704;2022-10-16T14:19:01;11.10;99.90
45715;DHT22;31430;61.646;24.704;2022-10-16T14:21:28;11.10;99.90
45715;DHT22;31430;61.646;24.704;2022-10-16T14:23:54;11.10;99.90
45715;DHT22;31430;61.646;24.704;2022-10-16T14:26:23;11.10;99.90
45715;DHT22;31430;61.646;24.704;2022-10-16T14:29:09;11.10;99.90
45715;DHT22;31430;61.646;24.704;2022-10-16T14:31:36;11.10;99.90
45715;DHT22;31430;61.646;24.704;2022-10-16T14:34:03;11.10;99.90
45715;DHT22;31430;61.646;24.704;2022-10-16T14:36:29;11.10;99.90
45715;DHT22;31430;61.646;24.704;2022-10-16T14:39:17;11.10;99.90
45715;DHT22;31430;61.646;24.704;2022-10-16T14:41:46;11.10;99.90
45715;DHT22;31430;61.646;24.704;2022-10-16T14:44:13;11.10;99.90
45715;DHT22;31430;61.646;24.704;2022-10-16T14:46:41;11.10;99.90
45715;DHT22;31430;61.646;24.704;2022-10-16T14:51:40;11.10;99.90
45715;DHT22;31430;61.646;24.704;2022-10-16T14:54:14;11.10;99.90
45715;DHT22;31430;61.646;24.704;2022-10-16T14:56:53;11.10;99.90
45715;DHT22;31430;61.646;24.704;2022-10-16T14:59:27;11.10;99.90
45715;DHT22;31430;61.646;24.704;2022-10-16T15:01:54;11.10;99.90
45715;DHT22;31430;61.646;24.704;2022-10-16T15:04:19;11.00;99.90
45715;DHT22;31430;61.646;24.704;2022-10-16T15:06:45;11.00;99.90
45715;DHT22;31430;61.646;24.704;2022-10-16T15:09:11;11.00;99.90
45715;DHT22;31430;61.646;24.704;2022-10-16T15:11:37;11.10;99.90
45715;DHT22;31430;61.646;24.704;2022-10-16T15:14:03;11.00;99.90
45715;DHT22;31430;61.646;24.704;2022-10-16T15:16:29;11.10;99.90
45715;DHT22;31430;61.646;24.704;2022-10-16T15:18:55;11.10;99.90
45715;DHT22;31430;61.646;24.704;2022-10-16T15:21:27;11.10;99.90
45715;DHT22;31430;61.646;24.704;2022-10-16T15:23:53;11.10;99.90
45715;DHT22;31430;61.646;24.704;2022-10-16T15:26:19;11.20;99.90
45715;DHT22;31430;61.646;24.704;2022-10-16T15:28:45;11.20;99.90
45715;DHT22;31430;61.646;24.704;2022-10-16T15:31:11;11.30;99.90
45715;DHT22;31430;61.646;24.704;2022-10-16T15:33:36;11.30;99.90
45715;DHT22;31430;61.646;24.704;2022-10-16T15:36:03;11.30;99.90
45715;DHT22;31430;61.646;24.704;2022-10-16T15:38:30;11.30;99.90
45715;DHT22;31430;61.646;24.704;2022-10-16T15:40:55;11.30;99.90
45715;DHT22;31430;61.646;24.704;2022-10-16T15:43:21;11.40;99.90
45715;DHT22;31430;61.646;24.704;2022-10-16T15:46:10;11.40;99.90
45715;DHT22;31430;61.646;24.704;2022-10-16T15:48:36;11.40;99.90
45715;DHT22;31430;61.646;24.704;2022-10-16T15:51:07;11.40;99.90
45715;DHT22;31430;61.646;24.704;2022-10-16T15:53:34;11.40;99.90
45715;DHT22;31430;61.646;24.704;2022-10-16T15:56:07;11.50;99.90
45715;DHT22;31430;61.646;24.704;2022-10-16T15:58:33;11.50;99.90
45715;DHT22;31430;61.646;24.704;2022-10-16T16:01:00;11.50;99.90
45715;DHT22;31430;61.646;24.704;2022-10-16T16:03:27;11.50;99.90
45715;DHT22;31430;61.646;24.704;2022-10-16T16:05:53;11.50;99.90
45715;DHT22;31430;61.646;24.704;2022-10-16T16:08:19;11.50;99.90
45715;DHT22;31430;61.646;24.704;2022-10-16T16:10:45;11.50;99.90
45715;DHT22;31430;61.646;24.704;2022-10-16T16:13:22;11.50;99.90
45715;DHT22;31430;61.646;24.704;2022-10-16T16:15:47;11.60;99.90
45715;DHT22;31430;61.646;24.704;2022-10-16T16:18:13;11.60;99.90
45715;DHT22;31430;61.646;24.704;2022-10-16T16:20:38;11.60;99.90
45715;DHT22;31430;61.646;24.704;2022-10-16T16:23:04;11.60;99.90
45715;DHT22;31430;61.646;24.704;2022-10-16T16:25:30;11.50;99.90
45715;DHT22;31430;61.646;24.704;2022-10-16T16:27:56;11.50;99.90
45715;DHT22;31430;61.646;24.704;2022-10-16T16:30:22;11.50;99.90
45715;DHT22;31430;61.646;24.704;2022-10-16T16:32:47;11.60;99.90
45715;DHT22;31430;61.646;24.704;2022-10-16T16:35:13;11.60;99.90
45715;DHT22;31430;61.646;24.704;2022-10-16T16:37:39;11.60;99.90
45715;DHT22;31430;61.646;24.704;2022-10-16T16:40:05;11.60;99.90
45715;DHT22;31430;61.646;24.704;2022-10-16T16:42:30;11.60;99.90
45715;DHT22;31430;61.646;24.704;2022-10-16T16:44:56;11.60;99.90
45715;DHT22;31430;61.646;24.704;2022-10-16T16:47:22;11.60;99.90
45715;DHT22;31430;61.646;24.704;2022-10-16T16:49:48;11.60;99.90
45715;DHT22;31430;61.646;24.704;2022-10-16T16:52:14;11.50;99.90
45715;DHT22;31430;61.646;24.704;2022-10-16T16:54:39;11.50;99.90
45715;DHT22;31430;61.646;24.704;2022-10-16T16:57:05;11.50;99.90
45715;DHT22;31430;61.646;24.704;2022-10-16T16:59:31;11.50;99.90
45715;DHT22;31430;61.646;24.704;2022-10-16T17:01:59;11.50;99.90
45715;DHT22;31430;61.646;24.704;2022-10-16T17:04:25;11.40;99.90
45715;DHT22;31430;61.646;24.704;2022-10-16T17:06:53;11.40;99.90
45715;DHT22;31430;61.646;24.704;2022-10-16T17:09:20;11.40;99.90